sensor_id;sensor_type;location;lat;lon;timestamp;pressure;altitude;pressure_sealevel;temperature;humidity
66479;BME280;53294;47.912;13.526;2023-04-08T00:01:41;96128.63;;;8.02;47.72
66479;BME280;53294;47.912;13.526;2023-04-08T00:04:08;96126.75;;;8.03;48.02
66479;BME280;53294;47.912;13.526;2023-04-08T00:06:35;96126.47;;;8.04;48.11
66479;BME280;53294;47.912;13.526;2023-04-08T00:09:02;96127.06;;;7.96;48.51
66479;BME280;53294;47.912;13.526;2023-04-08T00:11:29;96127.91;;;7.91;48.73
66479;BME280;53294;47.912;13.526;2023-04-08T00:13:56;96130.19;;;8.08;47.64
66479;BME280;53294;47.912;13.526;2023-04-08T00:16:23;96130.13;;;8.14;47.55
66479;BME280;53294;47.912;13.526;2023-04-08T00:18:49;96126.06;;;7.87;48.87
66479;BME280;53294;47.912;13.526;2023-04-08T00:21:17;96125.66;;;7.69;49.38
66479;BME280;53294;47.912;13.526;2023-04-08T00:23:46;96120.22;;;7.80;48.97
66479;BME280;53294;47.912;13.526;2023-04-08T00:26:13;96124.38;;;7.62;50.02
66479;BME280;53294;47.912;13.526;2023-04-08T00:28:39;96128.91;;;7.61;50.19
66479;BME280;53294;47.912;13.526;2023-04-08T00:31:06;96135.34;;;7.55;50.56
66479;BME280;53294;47.912;13.526;2023-04-08T00:33:33;96126.50;;;7.60;50.22
66479;BME280;53294;47.912;13.526;2023-04-08T00:36:00;96133.47;;;7.61;50.34
66479;BME280;53294;47.912;13.526;2023-04-08T00:38:26;96133.03;;;7.43;51.33
66479;BME280;53294;47.912;13.526;2023-04-08T00:40:53;96132.25;;;7.43;51.63
66479;BME280;53294;47.912;13.526;2023-04-08T00:43:20;96131.28;;;7.13;53.56
66479;BME280;53294;47.912;13.526;2023-04-08T00:45:47;96139.38;;;6.97;53.84
66479;BME280;53294;47.912;13.526;2023-04-08T00:48:13;96134.28;;;7.06;53.55
66479;BME280;53294;47.912;13.526;2023-04-08T00:50:42;96130.63;;;7.42;52.06
66479;BME280;53294;47.912;13.526;2023-04-08T00:53:09;96126.63;;;7.39;52.03
66479;BME280;53294;47.912;13.526;2023-04-08T00:55:36;96134.41;;;7.35;52.67
66479;BME280;53294;47.912;13.526;2023-04-08T00:58:03;96129.59;;;7.37;52.42
66479;BME280;53294;47.912;13.526;2023-04-08T01:00:30;96132.84;;;7.29;53.33
66479;BME280;53294;47.912;13.526;2023-04-08T01:03:13;96132.88;;;7.19;53.83
66479;BME280;53294;47.912;13.526;2023-04-08T01:08:15;96126.59;;;7.49;52.64
66479;BME280;53294;47.912;13.526;2023-04-08T01:10:44;96125.72;;;7.59;52.07
66479;BME280;53294;47.912;13.526;2023-04-08T01:13:16;96118.66;;;7.73;51.38
66479;BME280;53294;47.912;13.526;2023-04-08T01:15:44;96122.75;;;7.61;52.38
66479;BME280;53294;47.912;13.526;2023-04-08T01:18:13;96121.47;;;7.53;52.44
66479;BME280;53294;47.912;13.526;2023-04-08T01:20:42;96120.78;;;7.77;52.29
66479;BME280;53294;47.912;13.526;2023-04-08T01:26:20;96109.75;;;7.49;53.47
66479;BME280;53294;47.912;13.526;2023-04-08T01:28:49;96110.81;;;7.48;53.51
66479;BME280;53294;47.912;13.526;2023-04-08T01:31:18;96108.63;;;7.60;52.71
66479;BME280;53294;47.912;13.526;2023-04-08T01:33:46;96099.47;;;7.66;52.84
66479;BME280;53294;47.912;13.526;2023-04-08T01:36:15;96095.09;;;7.81;52.46
66479;BME280;53294;47.912;13.526;2023-04-08T01:38:43;96107.38;;;7.42;54.60
66479;BME280;53294;47.912;13.526;2023-04-08T01:41:11;96094.59;;;7.73;53.31
66479;BME280;53294;47.912;13.526;2023-04-08T01:43:40;96092.28;;;7.96;51.95
66479;BME280;53294;47.912;13.526;2023-04-08T01:46:10;96091.91;;;7.79;52.84
66479;BME280;53294;47.912;13.526;2023-04-08T01:48:39;96097.38;;;7.58;54.09
66479;BME280;53294;47.912;13.526;2023-04-08T01:51:06;96099.88;;;7.84;53.07
66479;BME280;53294;47.912;13.526;2023-04-08T01:53:33;96093.97;;;7.87;52.79
66479;BME280;53294;47.912;13.526;2023-04-08T01:56:10;96094.75;;;7.93;52.46
66479;BME280;53294;47.912;13.526;2023-04-08T01:58:45;96088.44;;;8.07;51.79
66479;BME280;53294;47.912;13.526;2023-04-08T02:01:16;96092.47;;;7.76;53.83
66479;BME280;53294;47.912;13.526;2023-04-08T02:03:45;96087.19;;;8.00;52.40
66479;BME280;53294;47.912;13.526;2023-04-08T02:06:13;96076.81;;;7.93;53.18
66479;BME280;53294;47.912;13.526;2023-04-08T02:08:40;96087.03;;;7.86;53.51
66479;BME280;53294;47.912;13.526;2023-04-08T02:11:07;96085.53;;;8.04;52.81
66479;BME280;53294;47.912;13.526;2023-04-08T02:13:33;96088.44;;;8.07;52.67
66479;BME280;53294;47.912;13.526;2023-04-08T02:16:10;96076.88;;;7.83;55.50
66479;BME280;53294;47.912;13.526;2023-04-08T02:18:42;96080.88;;;7.85;55.33
66479;BME280;53294;47.912;13.526;2023-04-08T02:21:14;96081.09;;;7.94;54.40
66479;BME280;53294;47.912;13.526;2023-04-08T02:23:45;96079.28;;;8.19;53.01
66479;BME280;53294;47.912;13.526;2023-04-08T02:26:15;96078.53;;;8.37;52.45
66479;BME280;53294;47.912;13.526;2023-04-08T02:28:42;96084.97;;;8.07;54.48
66479;BME280;53294;47.912;13.526;2023-04-08T02:31:11;96085.69;;;8.18;53.20
66479;BME280;53294;47.912;13.526;2023-04-08T02:33:42;96085.19;;;8.16;53.46
66479;BME280;53294;47.912;13.526;2023-04-08T02:36:10;96098.50;;;8.21;53.22
66479;BME280;53294;47.912;13.526;2023-04-08T02:38:37;96090.19;;;8.22;53.76
66479;BME280;53294;47.912;13.526;2023-04-08T02:41:04;96098.50;;;8.21;54.63
66479;BME280;53294;47.912;13.526;2023-04-08T02:43:31;96084.63;;;8.19;53.62
66479;BME280;53294;47.912;13.526;2023-04-08T02:45:58;96091.94;;;8.08;54.94
66479;BME280;53294;47.912;13.526;2023-04-08T02:48:29;96094.84;;;8.12;54.54
66479;BME280;53294;47.912;13.526;2023-04-08T02:50:56;96091.63;;;8.44;53.05
66479;BME280;53294;47.912;13.526;2023-04-08T02:53:23;96095.03;;;8.50;53.13
66479;BME280;53294;47.912;13.526;2023-04-08T02:55:50;96080.22;;;8.57;52.30
66479;BME280;53294;47.912;13.526;2023-04-08T02:58:17;96090.16;;;8.57;52.56
66479;BME280;53294;47.912;13.526;2023-04-08T03:00:43;96084.91;;;8.47;53.29
66479;BME280;53294;47.912;13.526;2023-04-08T03:03:10;96092.72;;;8.38;53.88
66479;BME280;53294;47.912;13.526;2023-04-08T03:05:37;96087.13;;;8.34;53.62
66479;BME280;53294;47.912;13.526;2023-04-08T03:08:04;96098.59;;;8.40;53.04
66479;BME280;53294;47.912;13.526;2023-04-08T03:10:32;96094.09;;;8.35;54.37
66479;BME280;53294;47.912;13.526;2023-04-08T03:12:59;96092.78;;;8.03;56.59
66479;BME280;53294;47.912;13.526;2023-04-08T03:15:25;96095.91;;;8.11;55.97
66479;BME280;53294;47.912;13.526;2023-04-08T03:17:52;96098.22;;;7.93;57.33
66479;BME280;53294;47.912;13.526;2023-04-08T03:20:19;96091.81;;;7.89;58.56
66479;BME280;53294;47.912;13.526;2023-04-08T03:22:46;96090.84;;;7.75;59.66
66479;BME280;53294;47.912;13.526;2023-04-08T03:25:12;96098.28;;;7.83;58.74
66479;BME280;53294;47.912;13.526;2023-04-08T03:27:39;96093.03;;;7.67;59.52
66479;BME280;53294;47.912;13.526;2023-04-08T03:30:06;96094.69;;;7.63;60.04
66479;BME280;53294;47.912;13.526;2023-04-08T03:32:33;96096.25;;;7.64;59.53
66479;BME280;53294;47.912;13.526;2023-04-08T03:35:00;96092.47;;;7.76;58.87
66479;BME280;53294;47.912;13.526;2023-04-08T03:37:27;96089.50;;;7.77;59.46
66479;BME280;53294;47.912;13.526;2023-04-08T03:39:54;96097.56;;;7.72;59.83
66479;BME280;53294;47.912;13.526;2023-04-08T03:42:21;96097.03;;;7.70;59.84
66479;BME280;53294;47.912;13.526;2023-04-08T03:44:47;96101.06;;;7.67;60.50
66479;BME280;53294;47.912;13.526;2023-04-08T03:47:14;96102.44;;;7.65;59.67
66479;BME280;53294;47.912;13.526;2023-04-08T03:49:41;96102.72;;;7.58;60.09
66479;BME280;53294;47.912;13.526;2023-04-08T03:52:08;96104.50;;;7.73;59.45
66479;BME280;53294;47.912;13.526;2023-04-08T03:54:34;96113.91;;;7.65;60.22
66479;BME280;53294;47.912;13.526;2023-04-08T03:57:01;96120.88;;;7.66;60.62
66479;BME280;53294;47.912;13.526;2023-04-08T03:59:28;96119.31;;;7.55;60.53
66479;BME280;53294;47.912;13.526;2023-04-08T04:01:54;96130.50;;;7.62;60.86
66479;BME280;53294;47.912;13.526;2023-04-08T04:04:22;96124.84;;;7.69;59.57
66479;BME280;53294;47.912;13.526;2023-04-08T04:06:49;96121.09;;;7.70;60.62
66479;BME280;53294;47.912;13.526;2023-04-08T04:09:16;96132.59;;;7.70;60.37
66479;BME280;53294;47.912;13.526;2023-04-08T04:11:42;96128.28;;;7.75;60.29
66479;BME280;53294;47.912;13.526;2023-04-08T04:14:09;96136.03;;;7.76;60.37
66479;BME280;53294;47.912;13.526;2023-04-08T04:16:36;96144.94;;;7.61;60.77
66479;BME280;53294;47.912;13.526;2023-04-08T04:19:02;96148.88;;;7.74;60.33
66479;BME280;53294;47.912;13.526;2023-04-08T04:21:29;96146.56;;;7.62;60.84
66479;BME280;53294;47.912;13.526;2023-04-08T04:23:56;96141.53;;;7.55;61.14
66479;BME280;53294;47.912;13.526;2023-04-08T04:26:23;96145.50;;;7.58;61.39
66479;BME280;53294;47.912;13.526;2023-04-08T04:28:49;96149.81;;;7.54;61.51
66479;BME280;53294;47.912;13.526;2023-04-08T04:31:18;96152.44;;;7.59;61.02
66479;BME280;53294;47.912;13.526;2023-04-08T04:33:47;96155.34;;;7.68;60.72
66479;BME280;53294;47.912;13.526;2023-04-08T04:36:14;96150.88;;;7.53;61.31
66479;BME280;53294;47.912;13.526;2023-04-08T04:38:41;96169.06;;;7.51;61.34
66479;BME280;53294;47.912;13.526;2023-04-08T04:41:08;96163.25;;;7.39;62.54
66479;BME280;53294;47.912;13.526;2023-04-08T04:43:35;96159.66;;;6.98;63.68
66479;BME280;53294;47.912;13.526;2023-04-08T04:46:02;96173.06;;;6.83;64.52
66479;BME280;53294;47.912;13.526;2023-04-08T04:48:32;96160.28;;;6.75;64.83
66479;BME280;53294;47.912;13.526;2023-04-08T04:51:00;96162.19;;;6.59;65.19
66479;BME280;53294;47.912;13.526;2023-04-08T04:53:29;96164.31;;;6.57;65.35
66479;BME280;53294;47.912;13.526;2023-04-08T04:55:56;96174.72;;;6.69;65.03
66479;BME280;53294;47.912;13.526;2023-04-08T04:58:22;96169.66;;;6.62;65.01
66479;BME280;53294;47.912;13.526;2023-04-08T05:00:49;96167.75;;;6.68;64.90
66479;BME280;53294;47.912;13.526;2023-04-08T05:03:16;96189.09;;;6.83;63.77
66479;BME280;53294;47.912;13.526;2023-04-08T05:05:43;96199.47;;;7.00;62.76
66479;BME280;53294;47.912;13.526;2023-04-08T05:08:09;96198.09;;;7.18;61.63
66479;BME280;53294;47.912;13.526;2023-04-08T05:10:36;96206.59;;;7.25;61.77
66479;BME280;53294;47.912;13.526;2023-04-08T05:13:05;96199.59;;;7.40;61.02
66479;BME280;53294;47.912;13.526;2023-04-08T05:15:32;96207.63;;;7.40;61.64
66479;BME280;53294;47.912;13.526;2023-04-08T05:17:59;96205.97;;;7.49;61.09
66479;BME280;53294;47.912;13.526;2023-04-08T05:20:26;96210.78;;;7.52;61.10
66479;BME280;53294;47.912;13.526;2023-04-08T05:22:52;96210.47;;;7.59;60.69
66479;BME280;53294;47.912;13.526;2023-04-08T05:25:19;96209.09;;;7.61;60.95
66479;BME280;53294;47.912;13.526;2023-04-08T05:27:46;96206.72;;;7.54;60.94
66479;BME280;53294;47.912;13.526;2023-04-08T05:30:12;96211.50;;;7.63;60.63
66479;BME280;53294;47.912;13.526;2023-04-08T05:32:39;96212.75;;;7.81;60.08
66479;BME280;53294;47.912;13.526;2023-04-08T05:35:06;96209.81;;;7.82;60.22
66479;BME280;53294;47.912;13.526;2023-04-08T05:37:34;96214.41;;;7.71;60.12
66479;BME280;53294;47.912;13.526;2023-04-08T05:40:01;96209.75;;;7.37;61.88
66479;BME280;53294;47.912;13.526;2023-04-08T05:42:28;96214.66;;;7.10;62.63
66479;BME280;53294;47.912;13.526;2023-04-08T05:44:55;96214.16;;;6.92;63.48
66479;BME280;53294;47.912;13.526;2023-04-08T05:47:21;96208.63;;;6.68;64.08
66479;BME280;53294;47.912;13.526;2023-04-08T05:49:49;96220.63;;;6.76;63.39
66479;BME280;53294;47.912;13.526;2023-04-08T05:52:16;96222.19;;;6.92;62.48
66479;BME280;53294;47.912;13.526;2023-04-08T05:54:43;96231.75;;;7.14;61.99
66479;BME280;53294;47.912;13.526;2023-04-08T05:57:10;96233.84;;;7.27;61.31
66479;BME280;53294;47.912;13.526;2023-04-08T05:59:37;96239.19;;;7.27;61.07
66479;BME280;53294;47.912;13.526;2023-04-08T06:02:03;96248.78;;;7.33;60.99
66479;BME280;53294;47.912;13.526;2023-04-08T06:04:31;96243.66;;;7.47;61.11
66479;BME280;53294;47.912;13.526;2023-04-08T06:06:58;96238.22;;;7.63;60.54
66479;BME280;53294;47.912;13.526;2023-04-08T06:09:26;96243.00;;;7.76;60.15
66479;BME280;53294;47.912;13.526;2023-04-08T06:11:52;96238.91;;;7.94;59.88
66479;BME280;53294;47.912;13.526;2023-04-08T06:14:19;96245.59;;;7.91;60.37
66479;BME280;53294;47.912;13.526;2023-04-08T06:16:46;96248.78;;;7.94;60.29
66479;BME280;53294;47.912;13.526;2023-04-08T06:19:13;96243.03;;;8.16;59.46
66479;BME280;53294;47.912;13.526;2023-04-08T06:21:39;96238.53;;;8.11;59.80
66479;BME280;53294;47.912;13.526;2023-04-08T06:24:06;96239.00;;;8.18;59.79
66479;BME280;53294;47.912;13.526;2023-04-08T06:26:33;96245.94;;;8.19;59.72
66479;BME280;53294;47.912;13.526;2023-04-08T06:28:59;96246.69;;;7.85;60.77
66479;BME280;53294;47.912;13.526;2023-04-08T06:31:27;96254.16;;;7.88;60.18
66479;BME280;53294;47.912;13.526;2023-04-08T06:33:54;96251.81;;;7.82;60.94
66479;BME280;53294;47.912;13.526;2023-04-08T06:36:21;96251.25;;;7.85;60.94
66479;BME280;53294;47.912;13.526;2023-04-08T06:38:48;96249.06;;;7.92;60.94
66479;BME280;53294;47.912;13.526;2023-04-08T06:41:15;96254.94;;;7.89;60.90
66479;BME280;53294;47.912;13.526;2023-04-08T06:43:41;96254.31;;;8.07;60.08
66479;BME280;53294;47.912;13.526;2023-04-08T06:46:08;96248.88;;;8.23;59.79
66479;BME280;53294;47.912;13.526;2023-04-08T06:48:35;96249.41;;;8.25;59.51
66479;BME280;53294;47.912;13.526;2023-04-08T06:51:03;96251.81;;;8.26;59.39
66479;BME280;53294;47.912;13.526;2023-04-08T06:53:29;96260.25;;;8.39;59.29
66479;BME280;53294;47.912;13.526;2023-04-08T06:55:58;96259.66;;;8.52;58.99
66479;BME280;53294;47.912;13.526;2023-04-08T06:58:25;96259.50;;;8.73;58.67
66479;BME280;53294;47.912;13.526;2023-04-08T07:00:53;96265.66;;;8.73;58.83
66479;BME280;53294;47.912;13.526;2023-04-08T07:03:22;96261.25;;;8.88;58.52
66479;BME280;53294;47.912;13.526;2023-04-08T07:05:48;96264.28;;;8.76;59.45
66479;BME280;53294;47.912;13.526;2023-04-08T07:08:15;96261.31;;;8.83;58.93
66479;BME280;53294;47.912;13.526;2023-04-08T07:10:42;96270.34;;;8.87;58.62
66479;BME280;53294;47.912;13.526;2023-04-08T07:13:09;96263.50;;;8.75;59.12
66479;BME280;53294;47.912;13.526;2023-04-08T07:15:36;96256.59;;;8.69;59.29
66479;BME280;53294;47.912;13.526;2023-04-08T07:18:03;96270.31;;;8.18;58.44
66479;BME280;53294;47.912;13.526;2023-04-08T07:20:30;96264.69;;;8.19;57.27
66479;BME280;53294;47.912;13.526;2023-04-08T07:22:57;96264.97;;;8.18;57.81
66479;BME280;53294;47.912;13.526;2023-04-08T07:25:24;96270.69;;;8.46;57.47
66479;BME280;53294;47.912;13.526;2023-04-08T07:27:51;96263.50;;;8.75;56.43
66479;BME280;53294;47.912;13.526;2023-04-08T07:30:18;96273.53;;;8.59;56.85
66479;BME280;53294;47.912;13.526;2023-04-08T07:32:45;96289.00;;;8.23;58.63
66479;BME280;53294;47.912;13.526;2023-04-08T07:35:12;96287.31;;;7.93;59.48
66479;BME280;53294;47.912;13.526;2023-04-08T07:37:39;96297.88;;;7.63;60.41
66479;BME280;53294;47.912;13.526;2023-04-08T07:40:06;96301.34;;;7.53;60.05
66479;BME280;53294;47.912;13.526;2023-04-08T07:42:33;96301.13;;;7.45;60.23
66479;BME280;53294;47.912;13.526;2023-04-08T07:44:59;96307.53;;;7.49;60.13
66479;BME280;53294;47.912;13.526;2023-04-08T07:47:26;96303.53;;;7.46;60.72
66479;BME280;53294;47.912;13.526;2023-04-08T07:49:53;96305.56;;;7.75;59.69
66479;BME280;53294;47.912;13.526;2023-04-08T07:52:20;96308.50;;;7.73;59.78
66479;BME280;53294;47.912;13.526;2023-04-08T07:54:46;96318.50;;;7.42;60.65
66479;BME280;53294;47.912;13.526;2023-04-08T07:57:13;96313.94;;;7.48;61.23
66479;BME280;53294;47.912;13.526;2023-04-08T07:59:40;96320.38;;;7.42;61.87
66479;BME280;53294;47.912;13.526;2023-04-08T08:02:07;96316.09;;;7.46;61.79
66479;BME280;53294;47.912;13.526;2023-04-08T08:04:34;96319.31;;;7.48;61.59
66479;BME280;53294;47.912;13.526;2023-04-08T08:07:01;96329.47;;;7.35;62.34
66479;BME280;53294;47.912;13.526;2023-04-08T08:09:27;96326.53;;;7.42;62.58
66479;BME280;53294;47.912;13.526;2023-04-08T08:11:57;96332.63;;;7.58;61.96
66479;BME280;53294;47.912;13.526;2023-04-08T08:14:24;96324.59;;;7.58;62.22
66479;BME280;53294;47.912;13.526;2023-04-08T08:16:52;96329.91;;;7.68;61.73
66479;BME280;53294;47.912;13.526;2023-04-08T08:19:19;96334.72;;;7.71;61.75
66479;BME280;53294;47.912;13.526;2023-04-08T08:21:47;96334.38;;;7.99;61.03
66479;BME280;53294;47.912;13.526;2023-04-08T08:24:14;96333.09;;;7.81;61.76
66479;BME280;53294;47.912;13.526;2023-04-08T08:26:41;96336.84;;;7.75;62.02
66479;BME280;53294;47.912;13.526;2023-04-08T08:29:10;96337.84;;;7.99;61.36
66479;BME280;53294;47.912;13.526;2023-04-08T08:31:37;96344.34;;;7.78;62.11
66479;BME280;53294;47.912;13.526;2023-04-08T08:34:03;96339.78;;;7.78;61.79
66479;BME280;53294;47.912;13.526;2023-04-08T08:36:30;96351.25;;;7.84;61.76
66479;BME280;53294;47.912;13.526;2023-04-08T08:38:59;96349.66;;;7.83;61.69
66479;BME280;53294;47.912;13.526;2023-04-08T08:41:26;96344.84;;;7.85;61.33
66479;BME280;53294;47.912;13.526;2023-04-08T08:43:58;96350.78;;;7.66;62.76
66479;BME280;53294;47.912;13.526;2023-04-08T08:46:25;96350.28;;;7.54;62.66
66479;BME280;53294;47.912;13.526;2023-04-08T08:48:52;96360.97;;;7.59;61.94
66479;BME280;53294;47.912;13.526;2023-04-08T08:51:18;96361.97;;;7.73;61.53
66479;BME280;53294;47.912;13.526;2023-04-08T08:53:45;96365.22;;;7.65;61.90
66479;BME280;53294;47.912;13.526;2023-04-08T08:56:12;96371.16;;;7.31;62.59
66479;BME280;53294;47.912;13.526;2023-04-08T08:58:44;96367.97;;;7.40;62.11
66479;BME280;53294;47.912;13.526;2023-04-08T09:01:31;96373.06;;;7.26;62.98
66479;BME280;53294;47.912;13.526;2023-04-08T09:04:12;96374.91;;;7.41;62.45
66479;BME280;53294;47.912;13.526;2023-04-08T09:06:41;96381.06;;;7.15;62.98
66479;BME280;53294;47.912;13.526;2023-04-08T09:09:09;96384.53;;;7.36;62.20
66479;BME280;53294;47.912;13.526;2023-04-08T09:11:40;96384.53;;;7.42;61.69
66479;BME280;53294;47.912;13.526;2023-04-08T09:14:17;96381.88;;;7.11;62.97
66479;BME280;53294;47.912;13.526;2023-04-08T09:16:44;96393.88;;;7.39;61.70
66479;BME280;53294;47.912;13.526;2023-04-08T09:19:11;96380.25;;;7.46;61.09
66479;BME280;53294;47.912;13.526;2023-04-08T09:21:38;96385.03;;;7.44;61.57
66479;BME280;53294;47.912;13.526;2023-04-08T09:24:07;96393.09;;;7.28;62.11
66479;BME280;53294;47.912;13.526;2023-04-08T09:26:35;96387.47;;;7.25;61.98
66479;BME280;53294;47.912;13.526;2023-04-08T09:29:07;96392.00;;;7.45;61.09
66479;BME280;53294;47.912;13.526;2023-04-08T09:31:58;96396.53;;;7.54;60.75
66479;BME280;53294;47.912;13.526;2023-04-08T09:34:26;96392.50;;;7.62;60.72
66479;BME280;53294;47.912;13.526;2023-04-08T09:36:54;96395.72;;;7.54;61.35
66479;BME280;53294;47.912;13.526;2023-04-08T09:39:21;96399.41;;;7.84;60.05
66479;BME280;53294;47.912;13.526;2023-04-08T09:41:49;96400.53;;;7.62;60.54
66479;BME280;53294;47.912;13.526;2023-04-08T09:44:19;96400.50;;;7.67;60.27
66479;BME280;53294;47.912;13.526;2023-04-08T09:49:26;96395.63;;;7.95;59.11
66479;BME280;53294;47.912;13.526;2023-04-08T09:54:50;96407.34;;;8.09;58.58
66479;BME280;53294;47.912;13.526;2023-04-08T09:57:27;96400.34;;;8.24;58.14
66479;BME280;53294;47.912;13.526;2023-04-08T10:00:09;96406.16;;;8.31;58.02
66479;BME280;53294;47.912;13.526;2023-04-08T10:02:56;96402.94;;;8.34;57.94
66479;BME280;53294;47.912;13.526;2023-04-08T10:05:26;96402.94;;;8.44;57.67
66479;BME280;53294;47.912;13.526;2023-04-08T10:07:55;96396.50;;;8.40;57.61
66479;BME280;53294;47.912;13.526;2023-04-08T10:10:22;96408.28;;;8.44;57.54
66479;BME280;53294;47.912;13.526;2023-04-08T10:12:50;96415.88;;;8.17;58.82
66479;BME280;53294;47.912;13.526;2023-04-08T10:15:27;96409.13;;;8.35;57.99
66479;BME280;53294;47.912;13.526;2023-04-08T10:23:02;96410.09;;;8.59;57.04
66479;BME280;53294;47.912;13.526;2023-04-08T10:30:45;96403.41;;;7.86;59.63
66479;BME280;53294;47.912;13.526;2023-04-08T10:35:50;96410.16;;;7.53;60.71
66479;BME280;53294;47.912;13.526;2023-04-08T10:38:19;96402.09;;;7.79;60.17
66479;BME280;53294;47.912;13.526;2023-04-08T10:40:47;96408.50;;;7.88;58.89
66479;BME280;53294;47.912;13.526;2023-04-08T10:43:14;96406.84;;;8.02;58.42
66479;BME280;53294;47.912;13.526;2023-04-08T10:45:42;96414.28;;;8.11;57.89
66479;BME280;53294;47.912;13.526;2023-04-08T10:48:13;96415.31;;;8.20;57.90
66479;BME280;53294;47.912;13.526;2023-04-08T10:50:40;96421.94;;;8.38;57.22
66479;BME280;53294;47.912;13.526;2023-04-08T10:53:07;96421.16;;;8.32;57.77
66479;BME280;53294;47.912;13.526;2023-04-08T10:55:34;96418.44;;;8.42;57.57
66479;BME280;53294;47.912;13.526;2023-04-08T10:58:07;96419.50;;;8.41;57.78
66479;BME280;53294;47.912;13.526;2023-04-08T11:00:36;96423.63;;;8.18;58.72
66479;BME280;53294;47.912;13.526;2023-04-08T11:03:08;96419.19;;;7.88;59.26
66479;BME280;53294;47.912;13.526;2023-04-08T11:05:37;96418.72;;;7.45;61.04
66479;BME280;53294;47.912;13.526;2023-04-08T11:08:04;96419.28;;;7.06;62.62
66479;BME280;53294;47.912;13.526;2023-04-08T11:10:36;96422.47;;;7.03;62.89
66479;BME280;53294;47.912;13.526;2023-04-08T11:13:07;96415.00;;;7.25;62.23
66479;BME280;53294;47.912;13.526;2023-04-08T11:15:35;96412.88;;;7.27;61.91
66479;BME280;53294;47.912;13.526;2023-04-08T11:18:03;96417.94;;;7.34;61.19
66479;BME280;53294;47.912;13.526;2023-04-08T11:20:32;96413.38;;;7.45;61.09
66479;BME280;53294;47.912;13.526;2023-04-08T11:23:01;96415.75;;;6.69;64.20
66479;BME280;53294;47.912;13.526;2023-04-08T11:25:29;96420.97;;;6.23;66.11
66479;BME280;53294;47.912;13.526;2023-04-08T11:27:56;96417.53;;;6.33;65.91
66479;BME280;53294;47.912;13.526;2023-04-08T11:30:23;96411.13;;;6.34;65.43
66479;BME280;53294;47.912;13.526;2023-04-08T11:32:50;96415.41;;;6.29;65.56
66479;BME280;53294;47.912;13.526;2023-04-08T11:35:17;96410.06;;;6.40;65.84
66479;BME280;53294;47.912;13.526;2023-04-08T11:37:44;96407.50;;;6.86;63.14
66479;BME280;53294;47.912;13.526;2023-04-08T11:40:19;96406.16;;;6.83;63.58
66479;BME280;53294;47.912;13.526;2023-04-08T11:42:46;96406.97;;;7.10;62.66
66479;BME280;53294;47.912;13.526;2023-04-08T11:45:14;96400.03;;;6.93;64.63
66479;BME280;53294;47.912;13.526;2023-04-08T11:47:43;96411.72;;;6.51;66.36
66479;BME280;53294;47.912;13.526;2023-04-08T11:50:10;96410.22;;;7.12;63.07
66479;BME280;53294;47.912;13.526;2023-04-08T11:52:48;96414.44;;;6.72;66.24
66479;BME280;53294;47.912;13.526;2023-04-08T11:57:53;96414.84;;;5.74;69.84
66479;BME280;53294;47.912;13.526;2023-04-08T12:00:21;96423.75;;;5.90;69.62
66479;BME280;53294;47.912;13.526;2023-04-08T12:02:48;96415.22;;;5.46;71.74
66479;BME280;53294;47.912;13.526;2023-04-08T12:05:15;96420.16;;;5.27;73.11
66479;BME280;53294;47.912;13.526;2023-04-08T12:07:43;96435.53;;;5.19;73.37
66479;BME280;53294;47.912;13.526;2023-04-08T12:10:10;96424.78;;;5.09;73.93
66479;BME280;53294;47.912;13.526;2023-04-08T12:12:37;96432.91;;;4.92;74.92
66479;BME280;53294;47.912;13.526;2023-04-08T12:15:05;96426.63;;;4.76;75.35
66479;BME280;53294;47.912;13.526;2023-04-08T12:17:33;96432.56;;;4.83;75.48
66479;BME280;53294;47.912;13.526;2023-04-08T12:20:00;96437.13;;;4.61;75.41
66479;BME280;53294;47.912;13.526;2023-04-08T12:22:27;96427.81;;;4.91;73.99
66479;BME280;53294;47.912;13.526;2023-04-08T12:24:53;96427.41;;;5.04;74.29
66479;BME280;53294;47.912;13.526;2023-04-08T12:27:20;96431.22;;;5.13;73.54
66479;BME280;53294;47.912;13.526;2023-04-08T12:29:46;96431.22;;;5.13;72.43
66479;BME280;53294;47.912;13.526;2023-04-08T12:32:15;96425.31;;;5.44;71.96
66479;BME280;53294;47.912;13.526;2023-04-08T12:34:41;96423.50;;;5.49;72.06
66479;BME280;53294;47.912;13.526;2023-04-08T12:37:08;96425.09;;;5.50;71.99
66479;BME280;53294;47.912;13.526;2023-04-08T12:39:35;96431.69;;;5.05;74.17
66479;BME280;53294;47.912;13.526;2023-04-08T12:42:02;96425.16;;;5.23;72.44
66479;BME280;53294;47.912;13.526;2023-04-08T12:44:29;96429.75;;;5.70;70.28
66479;BME280;53294;47.912;13.526;2023-04-08T12:46:56;96426.94;;;5.92;69.43
66479;BME280;53294;47.912;13.526;2023-04-08T12:49:25;96430.31;;;6.25;67.88
66479;BME280;53294;47.912;13.526;2023-04-08T12:51:53;96413.56;;;6.45;66.78
66479;BME280;53294;47.912;13.526;2023-04-08T12:54:20;96423.72;;;6.54;67.08
66479;BME280;53294;47.912;13.526;2023-04-08T12:56:47;96425.59;;;6.53;67.52
66479;BME280;53294;47.912;13.526;2023-04-08T12:59:14;96423.78;;;6.90;65.91
66479;BME280;53294;47.912;13.526;2023-04-08T13:01:41;96423.28;;;7.03;65.43
66479;BME280;53294;47.912;13.526;2023-04-08T13:04:08;96422.47;;;7.13;66.09
66479;BME280;53294;47.912;13.526;2023-04-08T13:06:35;96422.72;;;6.96;66.50
66479;BME280;53294;47.912;13.526;2023-04-08T13:09:01;96426.72;;;6.83;66.79
66479;BME280;53294;47.912;13.526;2023-04-08T13:11:28;96419.69;;;6.46;68.92
66479;BME280;53294;47.912;13.526;2023-04-08T13:13:55;96420.75;;;6.40;68.74
66479;BME280;53294;47.912;13.526;2023-04-08T13:16:22;96418.19;;;6.76;67.54
66479;BME280;53294;47.912;13.526;2023-04-08T13:18:49;96430.47;;;6.97;65.91
66479;BME280;53294;47.912;13.526;2023-04-08T13:21:16;96427.03;;;7.23;65.15
66479;BME280;53294;47.912;13.526;2023-04-08T13:23:43;96427.56;;;7.40;64.42
66479;BME280;53294;47.912;13.526;2023-04-08T13:26:10;96428.84;;;7.68;63.32
66479;BME280;53294;47.912;13.526;2023-04-08T13:28:36;96426.78;;;7.24;64.78
66479;BME280;53294;47.912;13.526;2023-04-08T13:31:22;96420.59;;;7.49;64.47